KPLR

St Clair County Airport

Pell City, Alabama, USA
METAR KPLR 170015Z AUTO 00000KT 5SM BR CLR 06/06 A3021 RMK A01
Observed Flight Rules
Dec-17 @ 00:15 UTC (7 minutes ago) Marginal Visual Flight Rules
Visibility Clouds Conditions
5 miles
  • Clear skies
  • Mist
Temperatures Readings
Current 6°C / 43°F
Dewpoint 6°C / 43°F
Humidity 100%
Altimeter 30.21" Hg
Pressure 1023 hPa
Elevation 148
METAR KPLR 170015Z AUTO 00000KT 5SM BR CLR 06/06 A3021 RMK A01
Observed Flight Rules
Dec-17 @ 00:15 UTC
(7 minutes ago)
MVFR
Clouds
  • Clear skies
Conditions
  • Mist
Temperature Dewpoint
6°C / 43°F 6°C / 43°F
Humidity Altimeter Pressure
100% 30.21" Hg 1023 hPa